Wetterstation-Oberesslingen
Wetterdaten: aktuell Donnerstag, 29.09.2022 07:20
Datum Zeit Temperatur BodenT. -10 Temp+5cm Luftfeuchte Bod.Feuchte Luftdruck Regen Wind Richtung Richtung Sonnenschein ET Solar Taupunkt Windchill Windben
29.09.2022 07:20 5,3 C 13,3 C 2,8 C 96 % 40 cb 1002,0 hPa 0,0 l/m 1,1 km/h (1 Bft) N 0 0 min 0,000 mm 0 W/m 4,7 C 5,3 C 0,0 km/h (0 Bft)
29.09.2022 06:20 5,4 C 13,3 C 1,7 C 96 % 40 cb 1001,6 hPa 0,0 l/m 1,1 km/h (1 Bft) N 0 0 min 0,000 mm 0 W/m 4,8 C 5,4 C 0,0 km/h (0 Bft)
29.09.2022 05:20 6,8 C 13,3 C 5,0 C 94 % 40 cb 1001,8 hPa 0,0 l/m 1,1 km/h (1 Bft) N 0 0 min 0,000 mm 0 W/m 5,9 C 6,8 C 0,0 km/h (0 Bft)
29.09.2022 04:20 6,9 C 13,3 C 6,1 C 95 % 40 cb 1002,2 hPa 0,0 l/m 1,1 km/h (1 Bft) O 90 0 min 0,000 mm 0 W/m 6,2 C 6,9 C 1,6 km/h (1 Bft)
29.09.2022 03:20 6,8 C 13,9 C 6,1 C 96 % 40 cb 1002,0 hPa 0,0 l/m 1,1 km/h (1 Bft) N 0 0 min 0,000 mm 0 W/m 6,2 C 6,8 C 0,0 km/h (0 Bft)
29.09.2022 02:20 6,5 C 13,9 C 5,6 C 96 % 40 cb 1002,2 hPa 0,0 l/m 1,1 km/h (1 Bft) N 0 0 min 0,000 mm 0 W/m 5,9 C 6,5 C 0,0 km/h (0 Bft)
29.09.2022 01:20 6,3 C 13,9 C 3,3 C 95 % 40 cb 1002,3 hPa 0,0 l/m 1,1 km/h (1 Bft) N 0 0 min 0,000 mm 0 W/m 5,6 C 6,3 C 0,0 km/h (0 Bft)
29.09.2022 00:20 7,1 C 13,9 C 5,0 C 95 % 39 cb 1002,3 hPa 0,0 l/m 1,1 km/h (1 Bft) O-NO 67 0 min 0,000 mm 0 W/m 6,4 C 7,1 C 1,6 km/h (1 Bft)
28.09.2022 23:20 7,0 C 13,9 C 4,4 C 95 % 39 cb 1002,3 hPa 0,0 l/m 1,1 km/h (1 Bft) N 0 0 min 0,000 mm 0 W/m 6,3 C 7,0 C 0,0 km/h (0 Bft)
28.09.2022 22:20 7,3 C 14,4 C 3,3 C 94 % 39 cb 1002,2 hPa 0,0 l/m 1,1 km/h (1 Bft) O-NO 67 0 min 0,000 mm 0 W/m 6,4 C 7,3 C 1,6 km/h (1 Bft)
28.09.2022 21:20 7,8 C 14,4 C 4,4 C 93 % 39 cb 1001,7 hPa 0,0 l/m 1,1 km/h (1 Bft) O-NO 67 0 min 0,000 mm 0 W/m 6,7 C 7,8 C 1,6 km/h (1 Bft)
28.09.2022 20:20 8,6 C 14,4 C 5,0 C 89 % 39 cb 1001,2 hPa 0,0 l/m 1,1 km/h (1 Bft) O-NO 67 0 min 0,000 mm 0 W/m 6,9 C 8,6 C 1,6 km/h (1 Bft)
28.09.2022 19:20 10,1 C 14,4 C 6,7 C 84 % 38 cb 1000,5 hPa 0,0 l/m 1,1 km/h (1 Bft) N 0 10 min 0,000 mm 0 W/m 7,5 C 10,1 C 0,0 km/h (0 Bft)
28.09.2022 18:20 12,3 C 14,4 C 11,1 C 71 % 38 cb 1000,2 hPa 0,0 l/m 1,1 km/h (1 Bft) SW 225 10 min 0,076 mm 51 W/m 7,2 C 12,3 C 1,6 km/h (1 Bft)
28.09.2022 17:20 13,1 C 14,4 C 13,9 C 69 % 38 cb 1000,0 hPa 0,0 l/m 2,7 km/h (1 Bft) W 270 10 min 0,102 mm 160 W/m 7,5 C 13,1 C 4,8 km/h (1 Bft)
28.09.2022 16:20 13,3 C 13,9 C 15,6 C 65 % 38 cb 999,9 hPa 0,0 l/m 2,7 km/h (1 Bft) N-NW 337 0 min 0,152 mm 200 W/m 6,9 C 13,3 C 4,8 km/h (1 Bft)
28.09.2022 15:20 13,2 C 13,9 C 17,2 C 67 % 38 cb 999,6 hPa 0,0 l/m 4,3 km/h (1 Bft) SW 225 0 min 0,152 mm 283 W/m 7,2 C 13,2 C 6,4 km/h (2 Bft)
28.09.2022 14:20 12,7 C 13,9 C 15,6 C 71 % 38 cb 999,7 hPa 0,0 l/m 4,3 km/h (1 Bft) NW 315 0 min 0,152 mm 246 W/m 7,6 C 12,7 C 6,4 km/h (2 Bft)
28.09.2022 13:20 12,4 C 13,9 C 17,2 C 75 % 38 cb 999,9 hPa 0,2 l/m 4,3 km/h (1 Bft) W-NW 292 0 min 0,152 mm 302 W/m 8,1 C 12,4 C 6,4 km/h (2 Bft)
28.09.2022 12:20 11,6 C 13,9 C 16,1 C 81 % 39 cb 999,8 hPa 0,0 l/m 4,3 km/h (1 Bft) NW 315 0 min 0,102 mm 295 W/m 8,5 C 11,6 C 8,0 km/h (2 Bft)
28.09.2022 11:20 11,0 C 13,9 C 13,9 C 86 % 39 cb 999,6 hPa 0,0 l/m 4,3 km/h (1 Bft) NW 315 0 min 0,076 mm 162 W/m 8,7 C 11,0 C 8,0 km/h (2 Bft)
28.09.2022 10:20 10,2 C 13,9 C 12,2 C 93 % 39 cb 999,0 hPa 0,2 l/m 2,7 km/h (1 Bft) NW 315 0 min 0,025 mm 128 W/m 9,1 C 10,2 C 6,4 km/h (2 Bft)
28.09.2022 09:20 9,4 C 13,9 C 10,0 C 95 % 39 cb 998,4 hPa 0,4 l/m 1,1 km/h (1 Bft) NW 315 0 min 0,000 mm 42 W/m 8,6 C 9,4 C 1,6 km/h (1 Bft)
28.09.2022 08:20 9,1 C 13,9 C 8,9 C 94 % 41 cb 997,6 hPa 0,2 l/m 2,7 km/h (1 Bft) NW 315 0 min 0,000 mm 18 W/m 8,2 C 9,1 C 4,8 km/h (1 Bft)
28.09.2022 08:00 9,1 C 13,9 C 8,9 C 95 % 43 cb 997,5 hPa 0,0 l/m 1,1 km/h (1 Bft) W-NW 292 0 min 0,000 mm 7 W/m 8,3 C 9,1 C 1,6 km/h (1 Bft)
_ Min-Zeit 06:30 03:55 06:00 16:00 12:25 08:05 - 08:00 - - - - - 06:25 06:25 08:55
Minimum _ 5,2 C 13,3 C 1,7 C 63 % 38 cb 997,4 hPa - 1,1 km/h (1 Bft) - - - - - 4,7 C 5,3 C 0,0 km/h (0 Bft)
_ Max-Zeit 15:25 16:40 13:50 06:50 08:00 22:45 08:05 11:10 - - 17:00 13:00 13:50 11:30 15:30 12:55
Maximum _ 13,5 C 14,4 C 17,8 C 97 % 43 cb 1002,4 hPa 0,2 l/m 6,0 km/h
NW (2 Bft)
- - 5 min 0,152 mm 311 W/m 9,2 C 13,5 C 16,1 km/h
N-NW (3 Bft)
Durchschnitt _ 9,2 C 13,9 C 8,9 C 87 % 39 cb 1000,5 hPa #1,0 l/m 1,9 km/h (1 Bft) O-NO - #0 min. #0,000 mm 0 W/m 7,1 C 9,2 C 3,3 km/h (1 Bft)